createdAt,value
2024-02-18T00:14:37.367Z,13.03
2024-02-18T00:29:41.667Z,15.10
2024-02-18T00:44:46.613Z,24.97
2024-02-18T00:59:52.431Z,16.80
2024-02-18T01:14:55.846Z,19.30
2024-02-18T01:29:59.946Z,17.37
2024-02-18T01:45:03.526Z,22.83
2024-02-18T02:00:08.673Z,20.17
2024-02-18T02:15:19.655Z,21.10
2024-02-18T02:30:23.250Z,16.03
2024-02-18T02:45:27.320Z,15.60
2024-02-18T03:00:32.056Z,14.73
2024-02-18T03:15:35.524Z,13.70
2024-02-18T03:30:48.275Z,14.93
2024-02-18T03:45:51.607Z,15.03
2024-02-18T04:00:55.302Z,14.20
2024-02-18T04:15:58.754Z,15.20
2024-02-18T04:31:02.475Z,16.90
2024-02-18T04:46:06.759Z,12.37
2024-02-18T05:01:11.688Z,16.23
2024-02-18T05:16:15.791Z,10.90
2024-02-18T05:31:23.384Z,13.57
2024-02-18T05:46:26.952Z,13.20
2024-02-18T06:01:31.224Z,11.30
2024-02-18T06:16:34.683Z,19.00
2024-02-18T06:31:41.187Z,13.17
2024-02-18T06:46:44.833Z,15.17
2024-02-18T07:01:48.390Z,11.77
2024-02-18T07:16:51.998Z,13.63
2024-02-18T07:31:57.345Z,10.37
2024-02-18T07:47:00.798Z,11.13
2024-02-18T08:02:06.855Z,14.60
2024-02-18T08:17:10.336Z,16.77
2024-02-18T08:32:13.639Z,23.13
2024-02-18T08:47:17.097Z,18.73
2024-02-18T09:02:20.573Z,18.70
2024-02-18T09:17:23.876Z,23.10
2024-02-18T09:32:27.282Z,22.17
2024-02-18T09:47:31.728Z,29.73
2024-02-18T10:02:41.670Z,24.43
2024-02-18T10:17:46.851Z,19.37
2024-02-18T10:32:50.878Z,19.80
2024-02-18T10:48:01.872Z,26.63
2024-02-18T11:03:10.887Z,29.00
2024-02-18T11:18:14.852Z,18.40
2024-02-18T11:33:23.748Z,17.53
2024-02-18T11:48:27.274Z,19.70
2024-02-18T12:03:30.759Z,12.13
2024-02-18T12:18:34.405Z,13.07
2024-02-18T12:33:38.621Z,17.37
2024-02-18T12:48:42.498Z,11.70
2024-02-18T13:03:46.906Z,10.90
2024-02-18T13:18:51.315Z,7.00
2024-02-18T13:33:56.148Z,7.10
2024-02-18T13:49:00.401Z,9.40
2024-02-18T14:04:04.272Z,7.43
2024-02-18T14:19:08.715Z,8.27
2024-02-18T14:34:12.807Z,6.30
2024-02-18T14:49:16.180Z,4.63
2024-02-18T15:04:19.887Z,6.67
2024-02-18T15:19:24.323Z,7.67
2024-02-18T15:34:29.772Z,8.40
2024-02-18T15:49:33.007Z,6.83
2024-02-18T16:04:36.255Z,6.43
2024-02-18T16:19:39.630Z,8.50
2024-02-18T16:34:44.936Z,9.73
2024-02-18T16:49:48.775Z,8.20
2024-02-18T17:04:54.455Z,11.17
2024-02-18T17:19:57.952Z,11.00
2024-02-18T17:35:05.579Z,9.40
2024-02-18T17:50:10.155Z,14.00
2024-02-18T18:05:14.114Z,13.20
2024-02-18T18:20:18.360Z,10.60
2024-02-18T18:35:22.540Z,9.30
2024-02-18T18:50:25.695Z,7.90
2024-02-18T19:05:31.825Z,11.33
2024-02-18T19:20:35.247Z,10.17
2024-02-18T19:35:39.357Z,6.33
2024-02-18T19:50:42.723Z,5.30
2024-02-18T20:05:46.385Z,6.30
2024-02-18T20:20:49.540Z,4.13
2024-02-18T20:35:55.922Z,4.40
2024-02-18T20:50:59.800Z,3.40
2024-02-18T21:06:05.343Z,2.23
2024-02-18T21:21:11.866Z,1.37
2024-02-18T21:36:16.555Z,1.10
2024-02-18T21:51:20.997Z,1.70
2024-02-18T22:06:24.841Z,2.30
2024-02-18T22:21:28.344Z,1.53
2024-02-18T22:36:56.678Z,1.10
2024-02-18T22:52:03.263Z,1.10
2024-02-18T23:07:21.484Z,1.30
2024-02-18T23:22:41.310Z,1.40
2024-02-18T23:38:15.585Z,1.43
2024-02-18T23:53:22.668Z,1.07
